KHQZ

Mesquite Metro Airport

Mesquite, Texas, USA
METAR KHQZ 170150Z 14004KT 7SM -RA SCT065 OVC095 06/06 A3006
Observed Flight Rules
Dec-17 @ 01:50 UTC (27 minutes ago) Visual Flight Rules
Wind Visibility Clouds Conditions
140° at 4 knots 7 miles
  • Scattered at 6,500' AGL
  • Overcast at 9,500' AGL
  • Light Rain
Temperatures Readings
Current 6°C / 43°F
Dewpoint 6°C / 43°F
Humidity 100%
Altimeter 30.06" Hg
Pressure 1018 hPa
Elevation 136
METAR KHQZ 170150Z 14004KT 7SM -RA SCT065 OVC095 06/06 A3006
Observed Flight Rules
Dec-17 @ 01:50 UTC
(27 minutes ago)
VFR
Wind Visibility
140° at 4 knots 7 miles
Clouds
  • Scattered at 6,500' AGL
  • Overcast at 9,500' AGL
Conditions
  • Light Rain
Temperature Dewpoint
6°C / 43°F 6°C / 43°F
Humidity Altimeter Pressure
100% 30.06" Hg 1018 hPa